sensor_id;sensor_type;location;lat;lon;timestamp;pressure;altitude;pressure_sealevel;temperature;humidity
54172;BME280;40076;52.354;4.970;2023-03-18T00:00:10;100757.91;;;13.35;100.00
54172;BME280;40076;52.354;4.970;2023-03-18T00:02:37;100759.03;;;13.34;100.00
54172;BME280;40076;52.354;4.970;2023-03-18T00:05:04;100751.56;;;13.31;100.00
54172;BME280;40076;52.354;4.970;2023-03-18T00:07:29;100760.38;;;13.28;100.00
54172;BME280;40076;52.354;4.970;2023-03-18T00:09:55;100764.91;;;13.24;100.00
54172;BME280;40076;52.354;4.970;2023-03-18T00:12:20;100759.81;;;13.22;100.00
54172;BME280;40076;52.354;4.970;2023-03-18T00:14:46;100765.94;;;13.19;100.00
54172;BME280;40076;52.354;4.970;2023-03-18T00:17:11;100760.38;;;13.16;100.00
54172;BME280;40076;52.354;4.970;2023-03-18T00:19:37;100755.94;;;13.11;100.00
54172;BME280;40076;52.354;4.970;2023-03-18T00:22:02;100763.63;;;13.09;100.00
54172;BME280;40076;52.354;4.970;2023-03-18T00:24:28;100762.34;;;13.06;100.00
54172;BME280;40076;52.354;4.970;2023-03-18T00:26:54;100769.25;;;13.04;100.00
54172;BME280;40076;52.354;4.970;2023-03-18T00:29:20;100772.31;;;13.02;100.00
54172;BME280;40076;52.354;4.970;2023-03-18T00:31:46;100773.75;;;13.00;100.00
54172;BME280;40076;52.354;4.970;2023-03-18T00:34:12;100772.97;;;12.99;100.00
54172;BME280;40076;52.354;4.970;2023-03-18T00:36:38;100770.59;;;12.98;100.00
54172;BME280;40076;52.354;4.970;2023-03-18T00:39:04;100778.28;;;12.96;100.00
54172;BME280;40076;52.354;4.970;2023-03-18T00:41:30;100770.81;;;12.93;100.00
54172;BME280;40076;52.354;4.970;2023-03-18T00:43:57;100774.19;;;12.90;100.00
54172;BME280;40076;52.354;4.970;2023-03-18T00:46:25;100779.97;;;12.88;100.00
54172;BME280;40076;52.354;4.970;2023-03-18T00:48:54;100779.81;;;12.85;100.00
54172;BME280;40076;52.354;4.970;2023-03-18T00:51:21;100784.00;;;12.82;100.00
54172;BME280;40076;52.354;4.970;2023-03-18T00:53:50;100790.91;;;12.80;100.00
54172;BME280;40076;52.354;4.970;2023-03-18T00:56:17;100786.94;;;12.77;100.00
54172;BME280;40076;52.354;4.970;2023-03-18T00:58:44;100783.75;;;12.75;100.00
54172;BME280;40076;52.354;4.970;2023-03-18T01:01:11;100781.41;;;12.73;100.00
54172;BME280;40076;52.354;4.970;2023-03-18T01:03:41;100780.94;;;12.71;100.00
54172;BME280;40076;52.354;4.970;2023-03-18T01:06:13;100779.66;;;12.69;100.00
54172;BME280;40076;52.354;4.970;2023-03-18T01:08:39;100786.22;;;12.68;100.00
54172;BME280;40076;52.354;4.970;2023-03-18T01:11:05;100791.97;;;12.66;100.00
54172;BME280;40076;52.354;4.970;2023-03-18T01:13:32;100779.88;;;12.64;100.00
54172;BME280;40076;52.354;4.970;2023-03-18T01:15:57;100776.69;;;12.62;100.00
54172;BME280;40076;52.354;4.970;2023-03-18T01:18:23;100784.38;;;12.60;100.00
54172;BME280;40076;52.354;4.970;2023-03-18T01:20:49;100781.53;;;12.56;100.00
54172;BME280;40076;52.354;4.970;2023-03-18T01:23:15;100784.59;;;12.55;100.00
54172;BME280;40076;52.354;4.970;2023-03-18T01:25:40;100786.81;;;12.53;100.00
54172;BME280;40076;52.354;4.970;2023-03-18T01:28:07;100776.31;;;12.51;100.00
54172;BME280;40076;52.354;4.970;2023-03-18T01:30:32;100780.97;;;12.51;100.00
54172;BME280;40076;52.354;4.970;2023-03-18T01:33:00;100774.28;;;12.48;100.00
54172;BME280;40076;52.354;4.970;2023-03-18T01:35:25;100767.28;;;12.47;100.00
54172;BME280;40076;52.354;4.970;2023-03-18T01:37:51;100773.03;;;12.46;100.00
54172;BME280;40076;52.354;4.970;2023-03-18T01:40:18;100768.28;;;12.43;100.00
54172;BME280;40076;52.354;4.970;2023-03-18T01:42:47;100771.00;;;12.43;100.00
54172;BME280;40076;52.354;4.970;2023-03-18T01:45:20;100769.72;;;12.40;100.00
54172;BME280;40076;52.354;4.970;2023-03-18T01:47:47;100776.59;;;12.37;100.00
54172;BME280;40076;52.354;4.970;2023-03-18T01:50:17;100767.56;;;12.33;100.00
54172;BME280;40076;52.354;4.970;2023-03-18T01:52:44;100766.63;;;12.29;100.00
54172;BME280;40076;52.354;4.970;2023-03-18T01:55:14;100760.28;;;12.25;100.00
54172;BME280;40076;52.354;4.970;2023-03-18T01:57:42;100766.84;;;12.24;100.00
54172;BME280;40076;52.354;4.970;2023-03-18T02:00:09;100767.47;;;12.21;100.00
54172;BME280;40076;52.354;4.970;2023-03-18T02:02:38;100771.66;;;12.19;100.00
54172;BME280;40076;52.354;4.970;2023-03-18T02:05:06;100774.69;;;12.17;100.00
54172;BME280;40076;52.354;4.970;2023-03-18T02:07:33;100776.16;;;12.15;100.00
54172;BME280;40076;52.354;4.970;2023-03-18T02:10:03;100767.91;;;12.11;100.00
54172;BME280;40076;52.354;4.970;2023-03-18T02:12:34;100769.34;;;12.09;100.00
54172;BME280;40076;52.354;4.970;2023-03-18T02:15:03;100769.34;;;12.09;100.00
54172;BME280;40076;52.354;4.970;2023-03-18T02:17:33;100774.75;;;12.09;100.00
54172;BME280;40076;52.354;4.970;2023-03-18T02:20:25;100782.41;;;12.07;100.00
54172;BME280;40076;52.354;4.970;2023-03-18T02:28:37;100781.50;;;12.03;100.00
54172;BME280;40076;52.354;4.970;2023-03-18T02:31:09;100784.22;;;12.03;100.00
54172;BME280;40076;52.354;4.970;2023-03-18T02:33:37;100782.63;;;12.02;100.00
54172;BME280;40076;52.354;4.970;2023-03-18T02:36:07;100789.16;;;12.01;100.00
54172;BME280;40076;52.354;4.970;2023-03-18T02:38:34;100792.19;;;11.99;100.00
54172;BME280;40076;52.354;4.970;2023-03-18T02:40:59;100792.06;;;11.95;100.00
54172;BME280;40076;52.354;4.970;2023-03-18T02:43:31;100795.88;;;11.94;100.00
54172;BME280;40076;52.354;4.970;2023-03-18T02:46:10;100803.84;;;11.91;100.00
54172;BME280;40076;52.354;4.970;2023-03-18T02:48:39;100803.84;;;11.91;100.00
54172;BME280;40076;52.354;4.970;2023-03-18T02:51:07;100809.28;;;11.91;100.00
54172;BME280;40076;52.354;4.970;2023-03-18T02:53:33;100810.41;;;11.90;100.00
54172;BME280;40076;52.354;4.970;2023-03-18T02:55:59;100811.19;;;11.90;100.00
54172;BME280;40076;52.354;4.970;2023-03-18T02:58:24;100820.09;;;11.91;100.00
54172;BME280;40076;52.354;4.970;2023-03-18T03:00:50;100817.06;;;11.92;100.00
54172;BME280;40076;52.354;4.970;2023-03-18T03:03:15;100812.47;;;11.93;100.00
54172;BME280;40076;52.354;4.970;2023-03-18T03:05:40;100807.84;;;11.93;100.00
54172;BME280;40076;52.354;4.970;2023-03-18T03:08:06;100810.53;;;11.93;100.00
54172;BME280;40076;52.354;4.970;2023-03-18T03:10:32;100808.63;;;11.94;100.00
54172;BME280;40076;52.354;4.970;2023-03-18T03:12:58;100806.72;;;11.94;100.00
54172;BME280;40076;52.354;4.970;2023-03-18T03:15:23;100810.53;;;11.93;100.00
54172;BME280;40076;52.354;4.970;2023-03-18T03:17:49;100812.47;;;11.93;100.00
54172;BME280;40076;52.354;4.970;2023-03-18T03:20:14;100807.03;;;11.93;100.00
54172;BME280;40076;52.354;4.970;2023-03-18T03:22:40;100808.97;;;11.92;100.00
54172;BME280;40076;52.354;4.970;2023-03-18T03:25:08;100814.38;;;11.92;100.00
54172;BME280;40076;52.354;4.970;2023-03-18T03:27:34;100819.78;;;11.92;100.00
54172;BME280;40076;52.354;4.970;2023-03-18T03:29:59;100820.59;;;11.93;100.00
54172;BME280;40076;52.354;4.970;2023-03-18T03:32:25;100810.88;;;11.92;100.00
54172;BME280;40076;52.354;4.970;2023-03-18T03:34:50;100817.41;;;11.91;100.00
54172;BME280;40076;52.354;4.970;2023-03-18T03:37:16;100817.41;;;11.91;100.00
54172;BME280;40076;52.354;4.970;2023-03-18T03:39:42;100821.25;;;11.90;100.00
54172;BME280;40076;52.354;4.970;2023-03-18T03:42:08;100823.97;;;11.90;100.00
54172;BME280;40076;52.354;4.970;2023-03-18T03:44:34;100821.56;;;11.88;100.00
54172;BME280;40076;52.354;4.970;2023-03-18T03:46:59;100817.28;;;11.87;100.00
54172;BME280;40076;52.354;4.970;2023-03-18T03:49:25;100819.19;;;11.87;100.00
54172;BME280;40076;52.354;4.970;2023-03-18T03:51:51;100820.31;;;11.86;100.00
54172;BME280;40076;52.354;4.970;2023-03-18T03:54:16;100816.81;;;11.85;100.00
54172;BME280;40076;52.354;4.970;2023-03-18T03:56:42;100826.03;;;11.84;100.00
54172;BME280;40076;52.354;4.970;2023-03-18T03:59:07;100828.31;;;11.82;100.00
54172;BME280;40076;52.354;4.970;2023-03-18T04:01:34;100824.00;;;11.81;100.00
54172;BME280;40076;52.354;4.970;2023-03-18T04:03:59;100827.50;;;11.82;100.00
54172;BME280;40076;52.354;4.970;2023-03-18T04:06:27;100829.75;;;11.80;100.00
54172;BME280;40076;52.354;4.970;2023-03-18T04:08:52;100831.34;;;11.81;100.00
54172;BME280;40076;52.354;4.970;2023-03-18T04:11:17;100828.94;;;11.79;100.00
54172;BME280;40076;52.354;4.970;2023-03-18T04:13:43;100827.34;;;11.78;100.00
54172;BME280;40076;52.354;4.970;2023-03-18T04:16:08;100836.28;;;11.79;100.00
54172;BME280;40076;52.354;4.970;2023-03-18T04:18:34;100833.88;;;11.77;100.00
54172;BME280;40076;52.354;4.970;2023-03-18T04:20:59;100835.00;;;11.76;100.00
54172;BME280;40076;52.354;4.970;2023-03-18T04:23:25;100838.50;;;11.77;100.00
54172;BME280;40076;52.354;4.970;2023-03-18T04:25:51;100838.81;;;11.75;100.00
54172;BME280;40076;52.354;4.970;2023-03-18T04:28:16;100843.75;;;11.73;100.00
54172;BME280;40076;52.354;4.970;2023-03-18T04:30:42;100842.16;;;11.72;100.00
54172;BME280;40076;52.354;4.970;2023-03-18T04:33:07;100842.50;;;11.71;100.00
54172;BME280;40076;52.354;4.970;2023-03-18T04:35:34;100847.09;;;11.70;100.00
54172;BME280;40076;52.354;4.970;2023-03-18T04:37:59;100849.34;;;11.68;100.00
54172;BME280;40076;52.354;4.970;2023-03-18T04:40:25;100849.69;;;11.67;100.00
54172;BME280;40076;52.354;4.970;2023-03-18T04:42:50;100865.78;;;11.63;100.00
54172;BME280;40076;52.354;4.970;2023-03-18T04:45:16;100866.09;;;11.61;100.00
54172;BME280;40076;52.354;4.970;2023-03-18T04:47:42;100865.16;;;11.57;100.00
54172;BME280;40076;52.354;4.970;2023-03-18T04:50:09;100865.78;;;11.54;100.00
54172;BME280;40076;52.354;4.970;2023-03-18T04:52:37;100866.91;;;11.53;100.00
54172;BME280;40076;52.354;4.970;2023-03-18T04:55:04;100873.78;;;11.51;100.00
54172;BME280;40076;52.354;4.970;2023-03-18T04:57:29;100875.34;;;11.52;100.00
54172;BME280;40076;52.354;4.970;2023-03-18T04:59:55;100871.22;;;11.54;100.00
54172;BME280;40076;52.354;4.970;2023-03-18T05:02:21;100878.22;;;11.55;100.00
54172;BME280;40076;52.354;4.970;2023-03-18T05:04:46;100872.81;;;11.55;100.00
54172;BME280;40076;52.354;4.970;2023-03-18T05:07:13;100874.38;;;11.56;100.00
54172;BME280;40076;52.354;4.970;2023-03-18T05:09:39;100874.38;;;11.56;100.00
54172;BME280;40076;52.354;4.970;2023-03-18T05:12:06;100882.19;;;11.58;100.00
54172;BME280;40076;52.354;4.970;2023-03-18T05:14:31;100888.41;;;11.58;100.00
54172;BME280;40076;52.354;4.970;2023-03-18T05:16:56;100893.81;;;11.58;100.00
54172;BME280;40076;52.354;4.970;2023-03-18T05:19:22;100905.75;;;11.57;100.00
54172;BME280;40076;52.354;4.970;2023-03-18T05:21:49;100910.69;;;11.55;100.00
54172;BME280;40076;52.354;4.970;2023-03-18T05:24:14;100907.50;;;11.53;100.00
54172;BME280;40076;52.354;4.970;2023-03-18T05:26:39;100917.88;;;11.51;100.00
54172;BME280;40076;52.354;4.970;2023-03-18T05:29:05;100919.63;;;11.47;100.00
54172;BME280;40076;52.354;4.970;2023-03-18T05:31:30;100915.63;;;11.45;100.00
54172;BME280;40076;52.354;4.970;2023-03-18T05:33:55;100915.63;;;11.45;100.00
54172;BME280;40076;52.354;4.970;2023-03-18T05:36:21;100911.38;;;11.44;100.00
54172;BME280;40076;52.354;4.970;2023-03-18T05:38:47;100913.28;;;11.43;100.00
54172;BME280;40076;52.354;4.970;2023-03-18T05:41:12;100912.13;;;11.44;100.00
54172;BME280;40076;52.354;4.970;2023-03-18T05:43:38;100909.78;;;11.43;100.00
54172;BME280;40076;52.354;4.970;2023-03-18T05:46:03;100910.56;;;11.43;100.00
54172;BME280;40076;52.354;4.970;2023-03-18T05:48:29;100909.44;;;11.44;100.00
54172;BME280;40076;52.354;4.970;2023-03-18T05:50:54;100911.81;;;11.46;100.00
54172;BME280;40076;52.354;4.970;2023-03-18T05:53:19;100927.75;;;11.47;100.00
54172;BME280;40076;52.354;4.970;2023-03-18T05:55:45;100932.84;;;11.49;100.00
54172;BME280;40076;52.354;4.970;2023-03-18T05:58:10;100927.09;;;11.50;100.00
54172;BME280;40076;52.354;4.970;2023-03-18T06:00:36;100937.59;;;11.52;100.00
54172;BME280;40076;52.354;4.970;2023-03-18T06:03:02;100932.66;;;11.54;100.00
54172;BME280;40076;52.354;4.970;2023-03-18T06:05:28;100932.66;;;11.54;100.00
54172;BME280;40076;52.354;4.970;2023-03-18T06:07:54;100934.25;;;11.55;100.00
54172;BME280;40076;52.354;4.970;2023-03-18T06:10:21;100927.56;;;11.52;100.00
54172;BME280;40076;52.354;4.970;2023-03-18T06:12:49;100936.16;;;11.54;100.00
54172;BME280;40076;52.354;4.970;2023-03-18T06:15:16;100940.78;;;11.54;100.00
54172;BME280;40076;52.354;4.970;2023-03-18T06:17:42;100935.34;;;11.54;100.00
54172;BME280;40076;52.354;4.970;2023-03-18T06:20:09;100938.53;;;11.56;100.00
54172;BME280;40076;52.354;4.970;2023-03-18T06:22:35;100941.25;;;11.56;100.00
54172;BME280;40076;52.354;4.970;2023-03-18T06:25:01;100940.13;;;11.57;100.00
54172;BME280;40076;52.354;4.970;2023-03-18T06:27:28;100939.03;;;11.58;100.00
54172;BME280;40076;52.354;4.970;2023-03-18T06:29:54;100944.09;;;11.59;100.00
54172;BME280;40076;52.354;4.970;2023-03-18T06:32:19;100940.28;;;11.60;100.00
54172;BME280;40076;52.354;4.970;2023-03-18T06:34:45;100946.97;;;11.63;100.00
54172;BME280;40076;52.354;4.970;2023-03-18T06:37:11;100953.16;;;11.64;100.00
54172;BME280;40076;52.354;4.970;2023-03-18T06:39:36;100958.28;;;11.65;100.00
54172;BME280;40076;52.354;4.970;2023-03-18T06:42:01;100961.28;;;11.64;100.00
54172;BME280;40076;52.354;4.970;2023-03-18T06:44:27;100958.59;;;11.64;100.00
54172;BME280;40076;52.354;4.970;2023-03-18T06:46:52;100963.19;;;11.63;100.00
54172;BME280;40076;52.354;4.970;2023-03-18T06:49:17;100965.91;;;11.63;100.00
54172;BME280;40076;52.354;4.970;2023-03-18T06:51:43;100967.81;;;11.63;100.00
54172;BME280;40076;52.354;4.970;2023-03-18T06:54:09;100966.22;;;11.61;100.00
54172;BME280;40076;52.354;4.970;2023-03-18T06:56:35;100964.31;;;11.62;100.00
54172;BME280;40076;52.354;4.970;2023-03-18T06:59:05;100974.34;;;11.61;100.00
54172;BME280;40076;52.354;4.970;2023-03-18T07:01:32;100974.34;;;11.61;100.00
54172;BME280;40076;52.354;4.970;2023-03-18T07:03:58;100985.97;;;11.62;100.00
54172;BME280;40076;52.354;4.970;2023-03-18T07:06:25;100987.88;;;11.61;100.00
54172;BME280;40076;52.354;4.970;2023-03-18T07:08:50;100982.94;;;11.64;100.00
54172;BME280;40076;52.354;4.970;2023-03-18T07:11:17;100987.25;;;11.65;100.00
54172;BME280;40076;52.354;4.970;2023-03-18T07:13:42;100994.25;;;11.66;100.00
54172;BME280;40076;52.354;4.970;2023-03-18T07:16:08;100987.25;;;11.65;100.00
54172;BME280;40076;52.354;4.970;2023-03-18T07:18:33;100996.16;;;11.65;100.00
54172;BME280;40076;52.354;4.970;2023-03-18T07:20:59;101002.38;;;11.66;100.00
54172;BME280;40076;52.354;4.970;2023-03-18T07:23:24;101007.47;;;11.67;100.00
54172;BME280;40076;52.354;4.970;2023-03-18T07:25:51;101003.97;;;11.67;100.00
54172;BME280;40076;52.354;4.970;2023-03-18T07:28:16;101007.13;;;11.69;100.00
54172;BME280;40076;52.354;4.970;2023-03-18T07:30:41;101006.00;;;11.70;100.00
54172;BME280;40076;52.354;4.970;2023-03-18T07:33:07;101004.59;;;11.72;100.00
54172;BME280;40076;52.354;4.970;2023-03-18T07:35:32;101008.09;;;11.73;100.00
54172;BME280;40076;52.354;4.970;2023-03-18T07:37:58;101009.69;;;11.74;100.00
54172;BME280;40076;52.354;4.970;2023-03-18T07:40:23;101019.44;;;11.75;100.00
54172;BME280;40076;52.354;4.970;2023-03-18T07:42:48;101023.69;;;11.76;100.00
54172;BME280;40076;52.354;4.970;2023-03-18T07:45:16;101023.38;;;11.77;100.00
54172;BME280;40076;52.354;4.970;2023-03-18T07:47:41;101024.50;;;11.76;100.00
54172;BME280;40076;52.354;4.970;2023-03-18T07:50:07;101029.28;;;11.79;100.00
54172;BME280;40076;52.354;4.970;2023-03-18T07:52:33;101025.16;;;11.82;100.00
54172;BME280;40076;52.354;4.970;2023-03-18T07:54:58;101028.66;;;11.82;100.00
54172;BME280;40076;52.354;4.970;2023-03-18T07:57:23;101030.22;;;11.83;100.00
54172;BME280;40076;52.354;4.970;2023-03-18T07:59:50;101024.47;;;11.85;100.00
54172;BME280;40076;52.354;4.970;2023-03-18T08:02:16;101039.63;;;11.86;100.00
54172;BME280;40076;52.354;4.970;2023-03-18T08:04:41;101038.97;;;11.89;100.00
54172;BME280;40076;52.354;4.970;2023-03-18T08:07:08;101030.84;;;11.89;100.00
54172;BME280;40076;52.354;4.970;2023-03-18T08:09:36;101025.09;;;11.90;100.00
54172;BME280;40076;52.354;4.970;2023-03-18T08:12:01;101017.44;;;11.92;100.00
54172;BME280;40076;52.354;4.970;2023-03-18T08:14:26;101024.47;;;11.93;100.00
54172;BME280;40076;52.354;4.970;2023-03-18T08:16:52;101021.91;;;11.97;100.00
54172;BME280;40076;52.354;4.970;2023-03-18T08:19:17;101036.72;;;11.99;100.00
54172;BME280;40076;52.354;4.970;2023-03-18T08:21:43;101022.06;;;12.01;100.00
54172;BME280;40076;52.354;4.970;2023-03-18T08:24:09;101024.13;;;12.04;100.00
54172;BME280;40076;52.354;4.970;2023-03-18T08:26:35;101020.31;;;12.05;100.00
54172;BME280;40076;52.354;4.970;2023-03-18T08:29:01;101013.41;;;12.07;100.00
54172;BME280;40076;52.354;4.970;2023-03-18T08:31:26;101022.81;;;12.10;100.00
54172;BME280;40076;52.354;4.970;2023-03-18T08:33:51;101026.81;;;12.12;100.00
54172;BME280;40076;52.354;4.970;2023-03-18T08:36:20;101022.97;;;12.13;100.00
54172;BME280;40076;52.354;4.970;2023-03-18T08:38:46;101026.63;;;12.17;100.00
54172;BME280;40076;52.354;4.970;2023-03-18T08:41:11;101034.44;;;12.19;100.00
54172;BME280;40076;52.354;4.970;2023-03-18T08:43:37;101030.25;;;12.21;100.00
54172;BME280;40076;52.354;4.970;2023-03-18T08:46:02;101032.34;;;12.24;100.00
54172;BME280;40076;52.354;4.970;2023-03-18T08:48:28;101027.38;;;12.26;100.00
54172;BME280;40076;52.354;4.970;2023-03-18T08:50:54;101027.53;;;12.30;100.00
54172;BME280;40076;52.354;4.970;2023-03-18T08:53:20;101031.19;;;12.34;100.00
54172;BME280;40076;52.354;4.970;2023-03-18T08:55:45;101027.81;;;12.37;100.00
54172;BME280;40076;52.354;4.970;2023-03-18T08:58:10;101034.97;;;12.42;100.00
54172;BME280;40076;52.354;4.970;2023-03-18T09:00:38;101035.41;;;12.44;100.00
54172;BME280;40076;52.354;4.970;2023-03-18T09:03:04;101040.19;;;12.47;100.00
54172;BME280;40076;52.354;4.970;2023-03-18T09:05:31;101035.75;;;12.51;100.00
54172;BME280;40076;52.354;4.970;2023-03-18T09:07:57;101042.09;;;12.55;100.00
54172;BME280;40076;52.354;4.970;2023-03-18T09:10:23;101032.50;;;12.57;100.00
54172;BME280;40076;52.354;4.970;2023-03-18T09:12:49;101036.47;;;12.60;100.00
54172;BME280;40076;52.354;4.970;2023-03-18T09:15:15;101037.41;;;12.64;100.00
54172;BME280;40076;52.354;4.970;2023-03-18T09:17:42;101040.25;;;12.67;100.00
54172;BME280;40076;52.354;4.970;2023-03-18T09:20:09;101043.13;;;12.71;100.00
54172;BME280;40076;52.354;4.970;2023-03-18T09:22:36;101038.16;;;12.73;100.00
54172;BME280;40076;52.354;4.970;2023-03-18T09:25:02;101032.88;;;12.76;100.00
54172;BME280;40076;52.354;4.970;2023-03-18T09:27:27;101035.72;;;12.80;100.00
54172;BME280;40076;52.354;4.970;2023-03-18T09:29:52;101040.47;;;12.83;100.00
54172;BME280;40076;52.354;4.970;2023-03-18T09:32:18;101038.41;;;12.89;100.00
54172;BME280;40076;52.354;4.970;2023-03-18T09:34:43;101037.72;;;12.92;100.00
54172;BME280;40076;52.354;4.970;2023-03-18T09:37:10;101039.00;;;12.94;100.00
54172;BME280;40076;52.354;4.970;2023-03-18T09:39:37;101049.16;;;12.97;100.00
54172;BME280;40076;52.354;4.970;2023-03-18T09:42:26;101049.00;;;13.02;100.00
54172;BME280;40076;52.354;4.970;2023-03-18T09:45:02;101048.31;;;13.05;100.00
54172;BME280;40076;52.354;4.970;2023-03-18T09:50:35;101052.91;;;13.13;100.00
54172;BME280;40076;52.354;4.970;2023-03-18T09:53:20;101053.84;;;13.18;100.00
54172;BME280;40076;52.354;4.970;2023-03-18T09:55:49;101065.19;;;13.20;100.00
54172;BME280;40076;52.354;4.970;2023-03-18T10:00:51;101072.00;;;13.26;100.00
54172;BME280;40076;52.354;4.970;2023-03-18T10:03:30;101074.38;;;13.27;100.00
54172;BME280;40076;52.354;4.970;2023-03-18T10:06:11;101074.03;;;13.29;100.00
54172;BME280;40076;52.354;4.970;2023-03-18T10:11:34;101082.06;;;13.25;100.00
54172;BME280;40076;52.354;4.970;2023-03-18T10:16:48;101072.00;;;13.26;100.00
54172;BME280;40076;52.354;4.970;2023-03-18T10:19:15;101073.22;;;13.28;100.00
54172;BME280;40076;52.354;4.970;2023-03-18T10:22:08;101068.28;;;13.30;100.00
54172;BME280;40076;52.354;4.970;2023-03-18T10:24:42;101061.25;;;13.29;100.00
54172;BME280;40076;52.354;4.970;2023-03-18T10:27:21;101067.16;;;13.31;100.00
54172;BME280;40076;52.354;4.970;2023-03-18T10:32:38;101060.72;;;13.36;100.00
54172;BME280;40076;52.354;4.970;2023-03-18T10:38:22;101052.72;;;13.39;100.00
54172;BME280;40076;52.354;4.970;2023-03-18T10:40:49;101048.56;;;13.42;100.00
54172;BME280;40076;52.354;4.970;2023-03-18T10:43:20;101048.69;;;13.45;100.00
54172;BME280;40076;52.354;4.970;2023-03-18T10:46:01;101049.94;;;13.48;100.00
54172;BME280;40076;52.354;4.970;2023-03-18T10:48:34;101057.06;;;13.52;100.00
54172;BME280;40076;52.354;4.970;2023-03-18T10:51:21;101053.38;;;13.57;100.00
54172;BME280;40076;52.354;4.970;2023-03-18T10:54:12;101053.97;;;13.63;100.00
54172;BME280;40076;52.354;4.970;2023-03-18T10:56:40;101054.53;;;13.68;100.00
54172;BME280;40076;52.354;4.970;2023-03-18T10:59:15;101050.03;;;13.72;100.00
54172;BME280;40076;52.354;4.970;2023-03-18T11:01:46;101050.16;;;13.76;100.00
54172;BME280;40076;52.354;4.970;2023-03-18T11:04:15;101054.59;;;13.80;100.00
54172;BME280;40076;52.354;4.970;2023-03-18T11:06:49;101052.31;;;13.82;100.00
54172;BME280;40076;52.354;4.970;2023-03-18T11:09:21;101044.19;;;13.82;100.00
54172;BME280;40076;52.354;4.970;2023-03-18T11:11:55;101050.06;;;13.84;100.00
54172;BME280;40076;52.354;4.970;2023-03-18T11:14:22;101052.13;;;13.87;100.00
54172;BME280;40076;52.354;4.970;2023-03-18T11:19:46;101050.78;;;13.94;100.00
54172;BME280;40076;52.354;4.970;2023-03-18T11:22:21;101051.69;;;13.98;100.00
54172;BME280;40076;52.354;4.970;2023-03-18T11:27:28;101051.13;;;14.04;100.00
54172;BME280;40076;52.354;4.970;2023-03-18T11:30:34;101058.50;;;14.04;100.00
54172;BME280;40076;52.354;4.970;2023-03-18T11:33:04;101054.63;;;14.05;100.00
54172;BME280;40076;52.354;4.970;2023-03-18T11:35:54;101050.81;;;14.06;100.00
54172;BME280;40076;52.354;4.970;2023-03-18T11:38:26;101054.31;;;14.06;100.00
54172;BME280;40076;52.354;4.970;2023-03-18T11:40:55;101056.38;;;14.09;100.00
54172;BME280;40076;52.354;4.970;2023-03-18T11:43:29;101066.22;;;14.14;100.00
54172;BME280;40076;52.354;4.970;2023-03-18T11:46:05;101068.94;;;14.14;100.00
54172;BME280;40076;52.354;4.970;2023-03-18T11:48:35;101062.84;;;14.17;100.00
54172;BME280;40076;52.354;4.970;2023-03-18T11:55:01;101057.84;;;14.19;100.00
54172;BME280;40076;52.354;4.970;2023-03-18T11:57:02;101059.44;;;14.20;100.00
54172;BME280;40076;52.354;4.970;2023-03-18T11:59:41;101047.44;;;14.21;100.00
54172;BME280;40076;52.354;4.970;2023-03-18T12:08:44;101039.97;;;14.30;100.00
54172;BME280;40076;52.354;4.970;2023-03-18T12:10:41;101034.22;;;14.32;100.00
54172;BME280;40076;52.354;4.970;2023-03-18T12:16:06;101039.75;;;14.35;100.00
54172;BME280;40076;52.354;4.970;2023-03-18T12:18:40;101044.84;;;14.37;100.00
54172;BME280;40076;52.354;4.970;2023-03-18T12:24:14;101041.94;;;14.42;100.00
54172;BME280;40076;52.354;4.970;2023-03-18T12:29:31;101047.94;;;14.47;100.00
54172;BME280;40076;52.354;4.970;2023-03-18T12:32:33;101045.69;;;14.49;100.00
54172;BME280;40076;52.354;4.970;2023-03-18T12:35:11;101047.72;;;14.52;100.00
54172;BME280;40076;52.354;4.970;2023-03-18T12:45:39;101052.03;;;14.53;100.00
54172;BME280;40076;52.354;4.970;2023-03-18T12:48:34;101045.47;;;14.54;100.00
54172;BME280;40076;52.354;4.970;2023-03-18T12:51:08;101047.72;;;14.52;100.00
54172;BME280;40076;52.354;4.970;2023-03-18T12:53:45;101052.69;;;14.50;100.00
54172;BME280;40076;52.354;4.970;2023-03-18T12:56:21;101046.13;;;14.51;100.00
54172;BME280;40076;52.354;4.970;2023-03-18T12:58:51;101052.81;;;14.54;100.00
54172;BME280;40076;52.354;4.970;2023-03-18T13:01:20;101042.41;;;14.56;100.00
54172;BME280;40076;52.354;4.970;2023-03-18T13:03:53;101035.84;;;14.57;100.00
54172;BME280;40076;52.354;4.970;2023-03-18T13:06:25;101042.03;;;14.57;100.00
54172;BME280;40076;52.354;4.970;2023-03-18T13:17:21;101043.75;;;14.62;100.00
54172;BME280;40076;52.354;4.970;2023-03-18T13:19:48;101043.75;;;14.62;100.00
54172;BME280;40076;52.354;4.970;2023-03-18T13:22:28;101035.13;;;14.60;100.00
54172;BME280;40076;52.354;4.970;2023-03-18T13:25:13;101036.72;;;14.61;100.00
54172;BME280;40076;52.354;4.970;2023-03-18T13:27:50;101040.69;;;14.63;100.00
54172;BME280;40076;52.354;4.970;2023-03-18T13:30:32;101044.56;;;14.62;100.00
54172;BME280;40076;52.354;4.970;2023-03-18T13:33:15;101046.16;;;14.63;100.00
54172;BME280;40076;52.354;4.970;2023-03-18T13:44:34;101041.59;;;14.67;100.00
54172;BME280;40076;52.354;4.970;2023-03-18T13:47:03;101051.00;;;14.70;100.00
54172;BME280;40076;52.354;4.970;2023-03-18T13:49:31;101053.41;;;14.72;100.00
54172;BME280;40076;52.354;4.970;2023-03-18T13:52:01;101042.06;;;14.70;100.00
54172;BME280;40076;52.354;4.970;2023-03-18T13:54:33;101047.97;;;14.72;100.00
54172;BME280;40076;52.354;4.970;2023-03-18T13:59:49;101037.50;;;14.74;100.00